Time;durP1;ratioP1;P1;durP2;ratioP2;P2;SDS_P1;SDS_P2;PMS_P1;PMS_P2;Temp;Humidity;BMP_temperature;BMP_pressure;BME280_temperature;BME280_humidity;BME280_pressure;Samples;Min_cycle;Max_cycle;Signal;HPM_P1;HPM_P2
2022/11/16 00:02:07;;;;;;;24.95;11.13;;;;;;;10.54;100.00;99678.25;4965960;28;20023;-78
2022/11/16 00:04:33;;;;;;;18.88;11.10;;;;;;;10.55;100.00;99680.66;4951212;28;20037;-77
2022/11/16 00:07:01;;;;;;;17.75;10.68;;;;;;;10.50;100.00;99670.81;4954535;28;20035;-78
2022/11/16 00:09:30;;;;;;;20.88;12.32;;;;;;;10.50;100.00;99670.81;4967626;28;20101;-78
2022/11/16 00:12:02;;;;;;;25.10;11.80;;;;;;;10.55;100.00;99667.69;4952007;28;20630;-79
2022/11/16 00:14:30;;;;;;;18.58;11.40;;;;;;;10.53;100.00;99664.50;4953260;28;20047;-79
2022/11/16 00:16:56;;;;;;;18.83;10.50;;;;;;;10.51;100.00;99671.66;4955145;28;20050;-79
2022/11/16 00:19:22;;;;;;;20.73;11.90;;;;;;;10.51;100.00;99666.47;4970795;28;20089;-79
2022/11/16 00:21:48;;;;;;;18.38;10.73;;;;;;;10.52;100.00;99661.06;4951947;28;20073;-79
2022/11/16 00:24:16;;;;;;;17.00;11.02;;;;;;;10.48;100.00;99670.22;4951717;28;20034;-78
2022/11/16 00:26:42;;;;;;;18.90;10.98;;;;;;;10.52;100.00;99662.88;4970747;28;20483;-80
2022/11/16 00:29:21;;;;;;;18.58;9.75;;;;;;;10.52;100.00;99668.06;4949287;28;20035;-80
2022/11/16 00:31:47;;;;;;;18.80;10.15;;;;;;;10.53;100.00;99667.09;4961016;28;20121;-79
2022/11/16 00:34:13;;;;;;;17.95;10.77;;;;;;;10.49;100.00;99661.47;4973346;28;20031;-80
2022/11/16 00:36:39;;;;;;;19.15;10.20;;;;;;;10.49;100.00;99655.44;4969654;28;20045;-79
2022/11/16 00:39:04;;;;;;;17.55;10.55;;;;;;;10.51;100.00;99662.06;4973876;28;20045;-78
2022/11/16 00:41:30;;;;;;;17.77;10.10;;;;;;;10.49;100.00;99656.28;4962214;28;20396;-79
2022/11/16 00:43:55;;;;;;;20.85;12.98;;;;;;;10.43;100.00;99663.97;4966456;28;20468;-79
2022/11/16 00:46:21;;;;;;;19.23;10.00;;;;;;;10.47;100.00;99660.84;4942630;28;20047;-79
2022/11/16 00:48:46;;;;;;;19.35;10.35;;;;;;;10.57;100.00;99662.31;4976435;28;20038;-78
2022/11/16 00:51:12;;;;;;;16.08;9.68;;;;;;;10.59;100.00;99655.19;4974300;28;20043;-79
2022/11/16 00:53:38;;;;;;;19.42;9.88;;;;;;;10.53;100.00;99661.91;4961088;28;20067;-78
2022/11/16 00:56:04;;;;;;;14.98;9.23;;;;;;;10.58;100.00;99651.75;4957772;28;20043;-78
2022/11/16 00:58:34;;;;;;;14.60;9.50;;;;;;;10.55;100.00;99657.34;4942676;28;20104;-79
2022/11/16 01:01:06;;;;;;;21.23;10.13;;;;;;;10.52;100.00;99668.06;4957644;28;20039;-78
2022/11/16 01:03:33;;;;;;;18.88;10.00;;;;;;;10.47;100.00;99675.56;4968876;28;20398;-80
2022/11/16 01:06:04;;;;;;;18.63;9.27;;;;;;;10.46;100.00;99679.16;4951589;28;20128;-79
2022/11/16 01:08:29;;;;;;;16.88;9.50;;;;;;;10.48;100.00;99675.38;4964477;28;20070;-79
2022/11/16 01:12:07;;;;;;;14.25;9.63;;;;;;;10.57;100.00;99670.91;4954952;28;20528;-78
2022/11/16 01:13:40;;;;;;;14.52;9.15;;;;;;;10.55;100.00;99679.84;4967878;28;20487;-79
2022/11/16 01:16:06;;;;;;;17.42;10.32;;;;;;;10.50;100.00;99677.81;4932552;28;20079;-80
2022/11/16 01:18:31;;;;;;;15.68;9.75;;;;;;;10.52;100.00;99686.19;4936736;28;20037;-79
2022/11/16 01:20:57;;;;;;;18.95;10.05;;;;;;;10.51;100.00;99684.59;4952579;28;20050;-79
2022/11/16 01:23:22;;;;;;;20.23;9.85;;;;;;;10.51;100.00;99682.03;4948857;28;20701;-78
2022/11/16 01:26:00;;;;;;;18.35;9.95;;;;;;;10.48;100.00;99672.78;4936024;28;20050;-79
2022/11/16 01:28:29;;;;;;;19.52;10.48;;;;;;;10.49;100.00;99673.59;4965291;28;20114;-79
2022/11/16 01:30:56;;;;;;;17.88;10.82;;;;;;;10.60;100.00;99664.53;4977615;28;20053;-79
2022/11/16 01:33:21;;;;;;;20.92;10.82;;;;;;;10.48;100.00;99657.25;4976871;28;20026;-81
2022/11/16 01:35:49;;;;;;;17.25;9.93;;;;;;;10.54;100.00;99662.69;4973758;28;20042;-78
2022/11/16 01:38:16;;;;;;;15.75;10.43;;;;;;;10.56;100.00;99658.13;4937372;28;20093;-78
2022/11/16 01:40:41;;;;;;;20.52;10.52;;;;;;;10.47;100.00;99649.66;4974716;28;20042;-79
2022/11/16 01:43:19;;;;;;;19.30;10.60;;;;;;;10.48;100.00;99641.69;4971783;28;20034;-80
2022/11/16 01:45:46;;;;;;;20.05;11.27;;;;;;;10.50;100.00;99642.31;4952547;28;20426;-79
2022/11/16 01:48:17;;;;;;;21.50;12.05;;;;;;;10.49;100.00;99639.91;4953326;28;20124;-79
2022/11/16 01:50:44;;;;;;;21.48;12.30;;;;;;;10.50;100.00;99638.94;4952896;28;20051;-78
2022/11/16 01:53:12;;;;;;;21.60;12.38;;;;;;;10.48;100.00;99643.50;4955897;28;20046;-79
2022/11/16 01:55:46;;;;;;;23.08;11.85;;;;;;;10.42;100.00;99650.22;4953976;28;20058;-78
2022/11/16 01:58:23;;;;;;;20.60;11.32;;;;;;;10.43;100.00;99643.22;4944982;28;20046;-79
2022/11/16 02:00:55;;;;;;;18.73;10.65;;;;;;;10.42;100.00;99647.63;4973585;28;20521;-79
2022/11/16 02:03:31;;;;;;;18.15;10.98;;;;;;;10.42;100.00;99652.00;4962723;28;20073;-78
2022/11/16 02:06:31;;;;;;;21.38;11.25;;;;;;;10.42;100.00;99645.03;4939501;28;20650;-79
2022/11/16 02:09:54;;;;;;;20.02;10.88;;;;;;;10.50;100.00;99646.69;4958618;28;20035;-79
2022/11/16 02:12:36;;;;;;;20.02;10.20;;;;;;;10.47;100.00;99637.50;4972722;28;20094;-79
2022/11/16 02:15:13;;;;;;;18.88;10.52;;;;;;;10.49;100.00;99637.31;4961467;28;20038;-78
2022/11/16 02:17:48;;;;;;;18.60;10.32;;;;;;;10.54;100.00;99634.97;4974705;28;20042;-79
2022/11/16 02:20:45;;;;;;;18.30;10.13;;;;;;;10.51;100.00;99630.97;4959588;28;20037;-78
2022/11/16 02:23:28;;;;;;;20.33;9.60;;;;;;;10.49;100.00;99627.75;4973195;28;20070;-79
2022/11/16 02:25:56;;;;;;;19.10;9.85;;;;;;;10.47;100.00;99623.72;4942083;28;20065;-80
2022/11/16 02:28:22;;;;;;;33.13;13.07;;;;;;;10.45;100.00;99628.28;4975995;28;20035;-79
2022/11/16 02:30:52;;;;;;;32.35;12.40;;;;;;;10.45;100.00;99625.72;4957207;28;20116;-78
2022/11/16 02:33:25;;;;;;;39.50;12.63;;;;;;;10.50;100.00;99623.38;4956605;28;20114;-79
2022/11/16 02:35:55;;;;;;;42.50;14.27;;;;;;;10.54;100.00;99627.19;4958052;28;20066;-78
2022/11/16 02:38:26;;;;;;;35.25;12.27;;;;;;;10.51;100.00;99622.41;4971218;28;20031;-79
2022/11/16 02:41:00;;;;;;;24.93;12.07;;;;;;;10.45;100.00;99626.53;4951797;28;20478;-78
2022/11/16 02:43:33;;;;;;;17.30;9.73;;;;;;;10.48;100.00;99626.16;4973684;28;20396;-79
2022/11/16 02:46:04;;;;;;;16.75;9.13;;;;;;;10.47;100.00;99618.56;4973722;28;20081;-79
2022/11/16 02:48:36;;;;;;;17.63;9.32;;;;;;;10.52;100.00;99621.41;4961649;28;20031;-79
2022/11/16 02:51:05;;;;;;;19.83;9.07;;;;;;;10.54;100.00;99618.63;4972876;28;20499;-80
2022/11/16 02:53:37;;;;;;;16.60;9.32;;;;;;;10.55;100.00;99613.28;4954985;28;20078;-79
2022/11/16 02:56:03;;;;;;;22.00;9.50;;;;;;;10.61;100.00;99609.94;4955341;28;20925;-79
2022/11/16 02:58:29;;;;;;;21.33;9.75;;;;;;;10.54;100.00;99606.47;4971519;28;20093;-79
2022/11/16 03:01:07;;;;;;;22.17;9.93;;;;;;;10.56;100.00;99603.69;4960111;28;20532;-79
2022/11/16 03:03:51;;;;;;;18.83;10.50;;;;;;;10.54;100.00;99597.91;4955914;28;20605;-79
2022/11/16 03:06:22;;;;;;;22.48;9.38;;;;;;;10.50;100.00;99594.88;4956130;28;20137;-79
2022/11/16 03:09:00;;;;;;;15.27;9.43;;;;;;;10.47;100.00;99606.41;4971848;28;20030;-79
2022/11/16 03:14:18;;;;;;;21.35;10.15;;;;;;;10.44;100.00;99606.78;4958228;28;20546;-79
2022/11/16 03:16:48;;;;;;;14.75;8.98;;;;;;;10.45;100.00;99610.97;4954795;28;20050;-78
2022/11/16 03:19:20;;;;;;;17.80;8.77;;;;;;;10.41;100.00;99619.28;4955604;28;20034;-78
2022/11/16 03:21:51;;;;;;;16.70;9.93;;;;;;;10.48;100.00;99625.34;4974790;28;20089;-79
2022/11/16 03:24:19;;;;;;;17.40;10.35;;;;;;;10.41;100.00;99622.69;4955139;28;20030;-79
2022/11/16 03:27:23;;;;;;;18.25;9.40;;;;;;;10.37;100.00;99618.06;4956464;28;20083;-79
2022/11/16 03:30:07;;;;;;;17.92;9.75;;;;;;;10.45;100.00;99625.72;4980437;28;20026;-79
2022/11/16 03:32:54;;;;;;;18.55;10.00;;;;;;;10.42;100.00;99631.28;4959706;28;20063;-79
2022/11/16 03:35:26;;;;;;;16.25;9.55;;;;;;;10.33;100.00;99626.19;4957882;28;20114;-79
2022/11/16 03:37:56;;;;;;;17.85;9.68;;;;;;;10.36;100.00;99634.56;4955778;28;20041;-78
2022/11/16 03:40:25;;;;;;;20.23;9.02;;;;;;;10.43;100.00;99643.22;4938552;28;20138;-79
2022/11/16 03:42:52;;;;;;;12.95;7.63;;;;;;;10.33;100.00;99641.72;4969074;28;20031;-79
2022/11/16 03:45:18;;;;;;;10.50;6.70;;;;;;;10.45;100.00;99641.25;4955514;28;20627;-78
2022/11/16 03:47:44;;;;;;;14.88;7.20;;;;;;;10.45;100.00;99649.03;4954193;28;20081;-77
2022/11/16 03:50:11;;;;;;;15.02;5.95;;;;;;;10.41;100.00;99647.78;4956812;28;20031;-78
2022/11/16 03:52:38;;;;;;;8.00;5.45;;;;;;;10.47;100.00;99640.09;4938846;28;20046;-78
2022/11/16 03:55:04;;;;;;;9.95;5.35;;;;;;;10.39;100.00;99634.22;4956498;28;20491;-78
2022/11/16 03:57:29;;;;;;;6.43;4.45;;;;;;;10.36;100.00;99637.16;4951692;28;20582;-78
2022/11/16 03:59:57;;;;;;;9.93;5.53;;;;;;;10.34;100.00;99650.34;4953423;28;20030;-78
2022/11/16 04:02:23;;;;;;;9.45;5.88;;;;;;;10.38;100.00;99648.16;4970104;28;20545;-79
2022/11/16 04:24:33;;;;;;;5.10;3.10;;;;;;;10.27;100.00;99655.41;4959345;28;20035;-78
2022/11/16 04:29:56;;;;;;;6.68;2.38;;;;;;;10.40;100.00;99659.97;4957975;28;20029;-81
2022/11/16 04:37:52;;;;;;;3.42;2.17;;;;;;;10.42;100.00;99652.81;4956154;28;20051;-80
2022/11/16 04:40:28;;;;;;;6.32;3.20;;;;;;;10.35;100.00;99651.91;4970107;28;20097;-79
2022/11/16 04:42:57;;;;;;;8.68;3.22;;;;;;;10.27;100.00;99647.63;4955331;28;20039;-78
2022/11/16 04:48:10;;;;;;;6.45;2.17;;;;;;;10.23;100.00;99659.34;4972005;28;20586;-79
2022/11/16 04:50:37;;;;;;;5.10;1.88;;;;;;;10.22;100.00;99662.91;4956850;28;20039;-79
2022/11/16 04:53:03;;;;;;;5.57;2.00;;;;;;;10.23;100.00;99664.50;4953119;28;20165;-78
2022/11/16 04:55:33;;;;;;;3.85;1.70;;;;;;;10.30;100.00;99674.94;4953269;28;20043;-80
2022/11/16 04:57:59;;;;;;;4.43;2.63;;;;;;;10.23;100.00;99656.75;4947228;28;20492;-79
2022/11/16 05:00:25;;;;;;;4.38;1.88;;;;;;;10.32;100.00;99658.28;4957420;28;20070;-79
2022/11/16 05:02:51;;;;;;;2.60;1.40;;;;;;;10.27;100.00;99652.00;4972079;28;20030;-79
2022/11/16 05:05:16;;;;;;;3.92;1.65;;;;;;;10.31;100.00;99661.84;4935932;28;20480;-80
2022/11/16 05:07:45;;;;;;;5.13;1.40;;;;;;;10.20;100.00;99669.25;4972137;28;20042;-78
2022/11/16 05:10:18;;;;;;;5.07;1.30;;;;;;;10.22;100.00;99675.06;4946296;28;20031;-79
2022/11/16 05:12:43;;;;;;;1.75;0.88;;;;;;;10.20;100.00;99671.84;4955494;28;20091;-79
2022/11/16 05:15:09;;;;;;;3.92;1.30;;;;;;;10.13;100.00;99675.16;4967547;28;20042;-78
2022/11/16 05:17:35;;;;;;;4.18;1.75;;;;;;;10.10;100.00;99678.09;4939570;28;20075;-79
2022/11/16 05:22:56;;;;;;;5.68;1.80;;;;;;;10.20;100.00;99672.63;4968968;28;20488;-79
2022/11/16 05:25:24;;;;;;;1.45;1.02;;;;;;;10.12;100.00;99677.94;4955132;28;20041;-79
2022/11/16 05:27:51;;;;;;;2.83;1.00;;;;;;;10.07;100.00;99685.44;4955138;28;20047;-79
2022/11/16 05:30:16;;;;;;;2.83;1.33;;;;;;;10.10;100.00;99685.88;4941120;28;20038;-80
2022/11/16 05:32:42;;;;;;;3.15;1.20;;;;;;;10.07;100.00;99688.81;4972490;28;20031;-79
2022/11/16 05:35:09;;;;;;;1.55;1.23;;;;;;;10.08;100.00;99684.47;4953158;28;20022;-79
2022/11/16 05:37:35;;;;;;;1.98;1.13;;;;;;;10.12;100.00;99683.91;4958873;28;20708;-80
2022/11/16 05:40:00;;;;;;;5.75;1.27;;;;;;;10.06;100.00;99686.44;4953731;28;20046;-79
2022/11/16 05:42:36;;;;;;;11.32;6.35;;;;;;;10.03;100.00;99691.94;4954950;28;20575;-78
2022/11/16 05:45:02;;;;;;;60.38;28.02;;;;;;;10.01;100.00;99689.53;4946811;28;20031;-79
2022/11/16 05:47:28;;;;;;;36.38;15.88;;;;;;;9.99;100.00;99686.31;4944495;28;20470;-79
2022/11/16 05:49:56;;;;;;;7.80;3.80;;;;;;;10.04;100.00;99686.59;4951175;28;20049;-79
2022/11/16 05:52:23;;;;;;;10.85;3.40;;;;;;;10.02;100.00;99696.34;4953259;28;20043;-79
2022/11/16 05:54:49;;;;;;;13.65;5.88;;;;;;;10.05;100.00;99692.56;4955760;28;20031;-79
2022/11/16 05:57:16;;;;;;;8.90;5.32;;;;;;;9.99;100.00;99698.47;4949223;28;20167;-79
2022/11/16 05:59:42;;;;;;;6.85;4.07;;;;;;;9.91;100.00;99696.78;4968469;28;20035;-79
2022/11/16 06:02:08;;;;;;;10.27;6.65;;;;;;;9.90;100.00;99705.53;4938820;28;20031;-78
2022/11/16 06:04:34;;;;;;;8.20;5.55;;;;;;;9.88;100.00;99710.88;4970726;28;20416;-79
2022/11/16 06:07:00;;;;;;;9.55;4.15;;;;;;;9.85;100.00;99700.06;4957724;28;20100;-79
2022/11/16 06:09:29;;;;;;;6.90;3.85;;;;;;;9.82;100.00;99706.41;4951727;28;20019;-79
2022/11/16 06:11:59;;;;;;;10.48;4.70;;;;;;;9.78;100.00;99707.75;4951071;28;20045;-79
2022/11/16 06:14:26;;;;;;;10.45;4.05;;;;;;;9.72;100.00;99711.84;4954549;28;20454;-79
2022/11/16 06:16:51;;;;;;;8.82;4.13;;;;;;;9.67;100.00;99714.16;4970355;28;20054;-79
2022/11/16 06:19:18;;;;;;;7.65;4.75;;;;;;;9.65;100.00;99710.94;4954963;28;20026;-79
2022/11/16 06:21:44;;;;;;;8.73;3.95;;;;;;;9.65;100.00;99718.72;4968831;28;20049;-79
2022/11/16 06:24:15;;;;;;;11.27;4.57;;;;;;;9.61;100.00;99727.81;4967368;28;20038;-79
2022/11/16 06:26:41;;;;;;;9.00;3.60;;;;;;;9.57;100.00;99721.38;4969993;28;20518;-79
2022/11/16 06:29:06;;;;;;;14.90;8.20;;;;;;;9.56;100.00;99730.09;4954625;28;20049;-79
2022/11/16 06:31:33;;;;;;;11.50;5.90;;;;;;;9.53;100.00;99731.28;4952638;28;20051;-79
2022/11/16 06:34:01;;;;;;;7.13;4.75;;;;;;;9.50;100.00;99731.59;4967316;28;20691;-79
2022/11/16 06:36:27;;;;;;;14.80;3.90;;;;;;;9.49;100.00;99737.78;4955608;28;20105;-79
2022/11/16 06:38:53;;;;;;;7.53;4.30;;;;;;;9.45;100.00;99743.47;4940239;28;20662;-79
2022/11/16 06:41:20;;;;;;;16.38;7.97;;;;;;;9.44;100.00;99744.47;4951503;28;20090;-79
2022/11/16 06:43:48;;;;;;;18.05;8.80;;;;;;;9.45;100.00;99746.06;4938087;28;20029;-79
2022/11/16 06:46:16;;;;;;;11.63;5.72;;;;;;;9.40;100.00;99740.59;4952971;28;20085;-79
2022/11/16 06:48:42;;;;;;;38.15;17.88;;;;;;;9.45;100.00;99749.44;4935116;28;20039;-79
2022/11/16 06:51:11;;;;;;;54.97;29.20;;;;;;;9.47;100.00;99749.28;4953040;28;20043;-80
2022/11/16 06:53:36;;;;;;;24.95;13.48;;;;;;;9.38;100.00;99753.72;4954688;28;20415;-80
2022/11/16 06:56:04;;;;;;;16.83;8.55;;;;;;;9.40;100.00;99756.94;4952626;28;20043;-78
2022/11/16 06:58:33;;;;;;;19.27;6.20;;;;;;;9.39;100.00;99759.69;4951869;28;20043;-80
2022/11/16 07:01:07;;;;;;;14.30;6.22;;;;;;;9.26;100.00;99753.31;4946069;28;20030;-79
2022/11/16 07:03:34;;;;;;;15.23;5.65;;;;;;;9.23;100.00;99760.59;4969453;28;20034;-78
2022/11/16 07:06:09;;;;;;;13.60;5.82;;;;;;;9.27;100.00;99760.09;4950896;28;20495;-79
2022/11/16 07:08:37;;;;;;;12.50;5.32;;;;;;;9.17;100.00;99764.66;4954964;28;20656;-80
2022/11/16 07:11:04;;;;;;;19.33;6.95;;;;;;;9.13;100.00;99766.78;4934123;28;20062;-79
2022/11/16 07:13:33;;;;;;;16.13;4.50;;;;;;;9.05;100.00;99766.06;4955925;28;20023;-79
2022/11/16 07:16:06;;;;;;;13.38;3.75;;;;;;;9.05;100.00;99764.28;4968454;28;20043;-79
2022/11/16 07:18:36;;;;;;;10.18;5.20;;;;;;;9.09;100.00;99762.16;4952553;28;20475;-79
2022/11/16 07:21:13;;;;;;;11.32;3.78;;;;;;;9.05;100.00;99764.28;4967067;28;20155;-79
2022/11/16 07:23:40;;;;;;;9.05;3.13;;;;;;;9.04;100.00;99754.91;4951655;28;20051;-79
2022/11/16 07:26:10;;;;;;;12.05;2.40;;;;;;;9.07;100.00;99757.16;4949539;28;20039;-78
2022/11/16 07:28:44;;;;;;;8.25;3.00;;;;;;;8.98;100.00;99757.38;4955684;28;20041;-80
2022/11/16 07:31:12;;;;;;;8.27;3.22;;;;;;;8.94;100.00;99767.25;4957731;28;20042;-80
2022/11/16 07:33:38;;;;;;;10.85;2.95;;;;;;;8.93;100.00;99770.81;4940918;28;20440;-80
2022/11/16 07:36:05;;;;;;;8.38;2.83;;;;;;;8.90;100.00;99768.56;4967643;28;20074;-79
2022/11/16 07:38:32;;;;;;;9.32;3.38;;;;;;;8.88;100.00;99783.44;4937813;28;20057;-79
2022/11/16 07:41:03;;;;;;;12.40;3.83;;;;;;;8.93;100.00;99776.00;4949611;28;20030;-81
2022/11/16 07:43:33;;;;;;;9.23;3.03;;;;;;;8.95;100.00;99782.59;4957886;28;20437;-79
2022/11/16 07:46:19;;;;;;;10.10;3.13;;;;;;;8.94;100.00;99796.47;4933994;28;20052;-79
2022/11/16 07:48:45;;;;;;;7.55;2.92;;;;;;;8.90;100.00;99794.41;4953593;28;20041;-79
2022/11/16 07:51:17;;;;;;;6.57;2.95;;;;;;;8.85;100.00;99799.28;4968899;28;20053;-78
2022/11/16 07:53:54;;;;;;;9.25;3.22;;;;;;;8.82;100.00;99794.47;4953870;28;20073;-82
2022/11/16 07:56:20;;;;;;;12.05;2.80;;;;;;;8.80;100.00;99794.63;4970665;28;20039;-81
2022/11/16 07:58:47;;;;;;;11.52;2.65;;;;;;;8.83;100.00;99796.88;4954026;28;20050;-80
2022/11/16 08:01:14;;;;;;;11.63;2.85;;;;;;;8.93;100.00;99797.47;4949645;28;20036;-81
2022/11/16 08:03:42;;;;;;;28.13;3.67;;;;;;;8.90;100.00;99807.34;4953687;28;20396;-79
2022/11/16 08:06:15;;;;;;;13.05;3.22;;;;;;;8.94;100.00;99811.19;4949912;28;20042;-79
2022/11/16 08:08:41;;;;;;;15.27;2.90;;;;;;;9.03;100.00;99812.78;4949796;28;20039;-79
2022/11/16 08:11:09;;;;;;;25.63;3.78;;;;;;;8.99;100.00;99818.47;4952442;28;20125;-78
2022/11/16 08:13:37;;;;;;;38.45;4.05;;;;;;;8.99;100.00;99811.50;4971455;28;20101;-80
2022/11/16 08:16:07;;;;;;;15.93;2.70;;;;;;;9.01;100.00;99819.09;4950374;28;20393;-81
2022/11/16 08:18:33;;;;;;;22.02;3.53;;;;;;;9.03;100.00;99828.28;4955137;28;20169;-79
2022/11/16 08:21:00;;;;;;;29.83;3.50;;;;;;;9.18;100.00;99828.38;4942986;28;20038;-80
2022/11/16 08:23:30;;;;;;;32.97;4.82;;;;;;;9.16;100.00;99822.56;4953052;28;20054;-80
2022/11/16 08:26:04;;;;;;;27.55;3.53;;;;;;;9.19;100.00;99831.75;4951279;28;20526;-79
2022/11/16 08:28:31;;;;;;;9.65;2.58;;;;;;;9.25;100.00;99836.25;4968772;28;20034;-79
2022/11/16 08:30:58;;;;;;;16.20;2.65;;;;;;;9.45;100.00;99840.00;4947135;28;20495;-80
2022/11/16 08:33:25;;;;;;;14.68;2.90;;;;;;;9.51;100.00;99835.91;4940344;28;20038;-78
2022/11/16 08:35:53;;;;;;;15.23;2.75;;;;;;;9.68;100.00;99836.63;4965507;28;20030;-79
2022/11/16 08:38:19;;;;;;;15.80;2.33;;;;;;;9.70;100.00;99832.88;4970395;28;20026;-81
2022/11/16 08:40:45;;;;;;;9.98;3.45;;;;;;;9.74;100.00;99834.16;4950477;28;20567;-80
2022/11/16 08:43:11;;;;;;;16.48;2.15;;;;;;;9.86;100.00;99842.31;4950936;28;20063;-80
2022/11/16 08:45:37;;;;;;;13.02;2.28;;;;;;;10.07;100.00;99841.63;4968869;28;20482;-79
2022/11/16 08:48:04;;;;;;;11.65;1.98;;;;;;;9.96;100.00;99836.06;4939186;28;20046;-80
2022/11/16 08:50:32;;;;;;;13.48;4.35;;;;;;;9.95;100.00;99835.28;4951786;28;20131;-80
2022/11/16 08:52:58;;;;;;;9.98;2.03;;;;;;;9.84;100.00;99833.09;4972237;28;20047;-80
2022/11/16 08:55:24;;;;;;;46.35;4.68;;;;;;;9.79;100.00;99843.16;4950758;28;20480;-81
2022/11/16 08:57:50;;;;;;;34.00;3.75;;;;;;;9.83;100.00;99847.03;4969121;28;20407;-80
2022/11/16 09:00:17;;;;;;;22.75;3.03;;;;;;;9.70;100.00;99855.38;4953180;28;20035;-79
2022/11/16 09:02:43;;;;;;;26.90;5.47;;;;;;;9.78;100.00;99851.94;4941493;28;20041;-81
2022/11/16 09:05:10;;;;;;;7.80;2.22;;;;;;;9.64;100.00;99851.69;4971924;28;20801;-80
2022/11/16 09:07:38;;;;;;;14.85;2.42;;;;;;;9.63;100.00;99862.22;4970099;28;20392;-80
2022/11/16 09:10:04;;;;;;;50.95;5.45;;;;;;;9.61;100.00;99856.41;4957860;28;20040;-79
2022/11/16 09:12:29;;;;;;;14.43;2.33;;;;;;;9.65;100.00;99861.06;4973270;28;20141;-81
2022/11/16 09:14:55;;;;;;;13.32;3.45;;;;;;;9.65;100.00;99862.88;4956709;28;20035;-80
2022/11/16 09:17:20;;;;;;;23.83;4.97;;;;;;;9.68;100.00;99862.50;4955313;28;20043;-80
2022/11/16 09:19:46;;;;;;;47.55;4.95;;;;;;;9.75;100.00;99864.22;4972763;28;20407;-80
2022/11/16 09:22:11;;;;;;;22.95;3.42;;;;;;;9.87;100.00;99864.63;4952763;28;22247;-80
2022/11/16 09:24:36;;;;;;;15.48;3.55;;;;;;;9.81;100.00;99861.94;4955951;28;20295;-79
2022/11/16 09:27:02;;;;;;;20.38;4.32;;;;;;;9.78;99.72;99860.50;4953404;28;20062;-78
2022/11/16 09:29:27;;;;;;;16.30;3.58;;;;;;;9.80;100.00;99860.34;4945744;28;20070;-80
2022/11/16 09:31:54;;;;;;;26.85;4.13;;;;;;;9.83;100.00;99865.16;4972219;28;20058;-80
2022/11/16 09:34:20;;;;;;;17.15;3.67;;;;;;;9.89;98.80;99861.88;4952116;28;20042;-80
2022/11/16 09:36:45;;;;;;;16.10;2.53;;;;;;;9.91;96.92;99865.91;4955877;28;20042;-80
2022/11/16 09:39:12;;;;;;;18.45;4.22;;;;;;;10.05;97.58;99869.50;4941756;28;20034;-80
2022/11/16 09:42:01;;;;;;;14.52;2.92;;;;;;;10.10;96.41;99877.56;4955692;28;20047;-79
2022/11/16 09:44:44;;;;;;;15.48;2.53;;;;;;;10.23;93.90;99870.97;4974950;28;20034;-80
2022/11/16 09:47:17;;;;;;;13.82;2.75;;;;;;;10.30;93.81;99871.88;4960362;28;20049;-81
2022/11/16 09:49:50;;;;;;;12.98;1.58;;;;;;;10.48;93.06;99871.56;4952305;28;20050;-79
2022/11/16 09:52:33;;;;;;;6.50;1.73;;;;;;;10.49;91.02;99871.41;4967433;28;20078;-81
2022/11/16 09:55:05;;;;;;;8.10;1.30;;;;;;;10.44;88.16;99875.50;4964150;28;20034;-80
2022/11/16 09:57:36;;;;;;;8.60;1.50;;;;;;;10.41;89.06;99874.06;4952548;28;20038;-79
2022/11/16 10:00:12;;;;;;;8.70;2.00;;;;;;;10.45;91.00;99866.72;4963407;28;20526;-80
2022/11/16 10:02:44;;;;;;;12.32;2.55;;;;;;;10.48;89.17;99868.97;4974217;28;20041;-80
2022/11/16 10:05:21;;;;;;;7.43;1.70;;;;;;;10.46;90.29;99863.97;4956040;28;20030;-79
2022/11/16 10:07:51;;;;;;;20.05;2.45;;;;;;;10.47;91.55;99872.53;4955436;28;20078;-83
2022/11/16 10:10:29;;;;;;;13.57;2.22;;;;;;;10.42;90.08;99865.31;4961811;28;20046;-81
2022/11/16 10:13:11;;;;;;;8.85;1.23;;;;;;;10.34;90.48;99873.19;4968740;28;20043;-80
2022/11/16 10:15:51;;;;;;;11.60;2.23;;;;;;;10.45;89.07;99866.72;4941696;28;20043;-82
2022/11/16 10:18:38;;;;;;;9.20;2.03;;;;;;;10.52;89.17;99865.03;4975357;28;21010;-80
2022/11/16 10:21:37;;;;;;;15.57;2.10;;;;;;;10.48;89.97;99863.78;4971274;28;20224;-79
2022/11/16 10:24:22;;;;;;;27.67;3.22;;;;;;;10.43;90.98;99871.28;4972420;28;20040;-81
2022/11/16 10:27:15;;;;;;;8.68;1.10;;;;;;;10.63;87.46;99867.19;4932718;28;20050;-80
2022/11/16 10:30:10;;;;;;;7.30;1.60;;;;;;;10.50;88.12;99872.19;4954165;28;20468;-79
2022/11/16 10:33:04;;;;;;;19.35;1.77;;;;;;;10.48;88.10;99862.00;4939716;28;20051;-80
2022/11/16 10:35:36;;;;;;;32.92;3.75;;;;;;;10.47;89.43;99870.78;4967271;28;20066;-81
2022/11/16 10:38:11;;;;;;;37.58;3.42;;;;;;;10.51;84.49;99860.88;4969999;28;20079;-82
2022/11/16 10:40:37;;;;;;;13.60;1.98;;;;;;;10.47;87.15;99855.22;4970680;28;20422;-81
2022/11/16 10:43:13;;;;;;;18.08;2.33;;;;;;;10.54;86.48;99860.47;4971397;28;20074;-79
2022/11/16 10:46:00;;;;;;;9.48;1.13;;;;;;;10.64;85.28;99852.44;4954622;28;20035;-80
2022/11/16 10:48:48;;;;;;;5.68;1.40;;;;;;;10.70;85.23;99860.31;4970159;28;20042;-80
2022/11/16 10:51:13;;;;;;;7.93;1.00;;;;;;;10.65;84.14;99851.47;4953575;28;20174;-75
2022/11/16 10:53:41;;;;;;;5.90;1.02;;;;;;;10.59;84.84;99850.38;4938702;29;20039;-80
2022/11/16 10:56:16;;;;;;;6.65;1.00;;;;;;;10.73;85.34;99853.97;4972548;28;20121;-79
2022/11/16 10:59:07;;;;;;;7.53;1.10;;;;;;;10.71;83.58;99845.56;4954788;28;20134;-79
2022/11/16 11:01:35;;;;;;;4.70;1.02;;;;;;;10.77;83.35;99849.22;4950551;28;20038;-83
2022/11/16 11:04:21;;;;;;;9.73;0.90;;;;;;;10.77;84.32;99841.44;4969854;28;20120;-80
2022/11/16 11:07:11;;;;;;;10.60;1.90;;;;;;;10.71;83.81;99837.78;4949619;28;20123;-82
2022/11/16 11:09:40;;;;;;;6.85;1.05;;;;;;;10.66;84.42;99835.75;4926243;28;20039;-80
2022/11/16 11:12:39;;;;;;;10.10;1.10;;;;;;;10.63;86.11;99833.50;4967900;28;20043;-82
2022/11/16 11:15:11;;;;;;;15.55;2.40;;;;;;;10.74;87.32;99831.41;4936578;28;20034;-80
2022/11/16 11:17:39;;;;;;;11.88;1.58;;;;;;;10.78;88.70;99823.09;4966682;28;20057;-79
2022/11/16 11:20:14;;;;;;;9.48;1.50;;;;;;;10.98;86.75;99825.13;4968617;28;20487;-81
2022/11/16 11:22:50;;;;;;;11.25;1.42;;;;;;;11.03;84.50;99825.41;4957900;28;20031;-82
2022/11/16 11:25:23;;;;;;;18.13;2.00;;;;;;;11.02;85.94;99827.19;4954145;28;20038;-82
2022/11/16 11:27:52;;;;;;;10.68;1.73;;;;;;;11.02;85.37;99818.59;4957489;28;20037;-79
2022/11/16 11:30:21;;;;;;;11.43;1.63;;;;;;;10.98;86.87;99820.75;4972091;28;20037;-80
2022/11/16 11:32:47;;;;;;;50.78;5.55;;;;;;;11.13;84.07;99814.72;4954651;28;20093;-82
2022/11/16 11:35:25;;;;;;;29.45;4.00;;;;;;;11.14;85.11;99816.34;4952116;28;20053;-76
2022/11/16 11:37:53;;;;;;;129.43;10.18;;;;;;;11.15;84.24;99803.19;4971862;28;20045;-80
2022/11/16 11:40:27;;;;;;;39.45;4.57;;;;;;;11.12;84.64;99803.53;4956217;28;20034;-81
2022/11/16 11:42:54;;;;;;;105.18;9.60;;;;;;;11.22;83.43;99793.66;4954595;28;20027;-81
2022/11/16 11:45:24;;;;;;;18.40;2.05;;;;;;;11.24;82.94;99796.88;4939967;28;20053;-80
2022/11/16 11:47:59;;;;;;;11.82;2.63;;;;;;;11.38;81.59;99779.66;4953818;28;20066;-83
2022/11/16 11:50:51;;;;;;;8.45;1.40;;;;;;;11.23;82.90;99784.09;4964037;28;20039;-81
2022/11/16 11:53:29;;;;;;;10.52;1.55;;;;;;;11.33;83.29;99776.00;4934324;28;20063;-78
2022/11/16 11:55:57;;;;;;;9.27;1.40;;;;;;;11.37;83.29;99775.44;4969541;28;20477;-81
2022/11/16 11:58:27;;;;;;;8.70;1.38;;;;;;;11.35;83.29;99779.22;4969049;28;20034;-80
2022/11/16 12:01:22;;;;;;;24.13;2.65;;;;;;;11.45;82.90;99783.13;4968566;28;20046;-79
2022/11/16 12:04:10;;;;;;;8.10;1.35;;;;;;;11.52;81.18;99775.38;4946826;28;20046;-82
2022/11/16 12:07:01;;;;;;;8.32;1.27;;;;;;;11.55;80.98;99766.41;4939072;28;20462;-82
2022/11/16 12:09:43;;;;;;;10.13;1.75;;;;;;;11.53;81.29;99771.78;4935820;28;20042;-81
2022/11/16 12:12:26;;;;;;;15.98;1.40;;;;;;;11.52;81.73;99767.59;4953189;28;20094;-80
2022/11/16 12:15:10;;;;;;;;;;;;;;;11.56;80.83;99760.22;4969117;28;20484;-81
2022/11/16 12:17:48;;;;;;;11.15;1.65;;;;;;;11.57;81.07;99762.63;4966305;28;19933;-81